sensor_id;sensor_type;location;lat;lon;timestamp;temperature;humidity
45803;DHT22;31504;51.716;9.184;2023-04-06T00:00:13;19.70;36.80
45803;DHT22;31504;51.716;9.184;2023-04-06T00:03:14;19.70;36.70
45803;DHT22;31504;51.716;9.184;2023-04-06T00:06:15;19.70;36.60
45803;DHT22;31504;51.716;9.184;2023-04-06T00:09:15;19.70;36.70
45803;DHT22;31504;51.716;9.184;2023-04-06T00:12:16;19.70;36.70
45803;DHT22;31504;51.716;9.184;2023-04-06T00:15:16;19.70;36.60
45803;DHT22;31504;51.716;9.184;2023-04-06T00:18:17;19.70;36.60
45803;DHT22;31504;51.716;9.184;2023-04-06T00:21:17;19.70;36.60
45803;DHT22;31504;51.716;9.184;2023-04-06T00:24:18;19.70;36.50
45803;DHT22;31504;51.716;9.184;2023-04-06T00:27:18;19.70;36.50
45803;DHT22;31504;51.716;9.184;2023-04-06T00:30:19;19.70;36.70
45803;DHT22;31504;51.716;9.184;2023-04-06T00:33:19;19.70;36.60
45803;DHT22;31504;51.716;9.184;2023-04-06T00:36:20;19.70;36.70
45803;DHT22;31504;51.716;9.184;2023-04-06T00:39:20;19.70;36.70
45803;DHT22;31504;51.716;9.184;2023-04-06T00:42:21;19.70;36.60
45803;DHT22;31504;51.716;9.184;2023-04-06T00:45:25;19.70;36.70
45803;DHT22;31504;51.716;9.184;2023-04-06T00:48:26;19.60;36.60
45803;DHT22;31504;51.716;9.184;2023-04-06T00:51:27;19.70;36.70
45803;DHT22;31504;51.716;9.184;2023-04-06T00:54:28;19.60;36.50
45803;DHT22;31504;51.716;9.184;2023-04-06T00:57:29;19.70;36.60
45803;DHT22;31504;51.716;9.184;2023-04-06T01:00:29;19.70;36.60
45803;DHT22;31504;51.716;9.184;2023-04-06T01:03:30;19.70;36.60
45803;DHT22;31504;51.716;9.184;2023-04-06T01:06:31;19.70;36.70
45803;DHT22;31504;51.716;9.184;2023-04-06T01:09:31;19.70;36.60
45803;DHT22;31504;51.716;9.184;2023-04-06T01:12:32;19.70;36.50
45803;DHT22;31504;51.716;9.184;2023-04-06T01:15:32;19.70;36.50
45803;DHT22;31504;51.716;9.184;2023-04-06T01:18:33;19.60;37.00
45803;DHT22;31504;51.716;9.184;2023-04-06T01:21:35;19.60;36.40
45803;DHT22;31504;51.716;9.184;2023-04-06T01:24:36;19.60;36.40
45803;DHT22;31504;51.716;9.184;2023-04-06T01:27:36;19.60;36.40
45803;DHT22;31504;51.716;9.184;2023-04-06T01:30:37;19.60;36.40
45803;DHT22;31504;51.716;9.184;2023-04-06T01:33:37;19.60;36.40
45803;DHT22;31504;51.716;9.184;2023-04-06T01:36:38;19.60;36.40
45803;DHT22;31504;51.716;9.184;2023-04-06T01:39:38;19.60;36.10
45803;DHT22;31504;51.716;9.184;2023-04-06T01:42:39;19.60;36.20
45803;DHT22;31504;51.716;9.184;2023-04-06T01:45:39;19.60;36.30
45803;DHT22;31504;51.716;9.184;2023-04-06T01:48:40;19.60;36.40
45803;DHT22;31504;51.716;9.184;2023-04-06T01:51:40;19.60;36.40
45803;DHT22;31504;51.716;9.184;2023-04-06T01:54:41;19.60;36.40
45803;DHT22;31504;51.716;9.184;2023-04-06T01:57:41;19.60;36.30
45803;DHT22;31504;51.716;9.184;2023-04-06T02:00:42;19.60;36.10
45803;DHT22;31504;51.716;9.184;2023-04-06T02:03:42;19.60;36.30
45803;DHT22;31504;51.716;9.184;2023-04-06T02:06:42;19.60;36.40
45803;DHT22;31504;51.716;9.184;2023-04-06T02:09:43;19.60;36.40
45803;DHT22;31504;51.716;9.184;2023-04-06T02:12:43;19.60;36.40
45803;DHT22;31504;51.716;9.184;2023-04-06T02:15:44;19.60;36.30
45803;DHT22;31504;51.716;9.184;2023-04-06T02:18:45;19.60;36.40
45803;DHT22;31504;51.716;9.184;2023-04-06T02:21:45;19.60;36.30
45803;DHT22;31504;51.716;9.184;2023-04-06T02:24:46;19.60;36.20
45803;DHT22;31504;51.716;9.184;2023-04-06T02:27:46;19.60;36.20
45803;DHT22;31504;51.716;9.184;2023-04-06T02:30:47;19.60;36.20
45803;DHT22;31504;51.716;9.184;2023-04-06T02:33:47;19.60;36.10
45803;DHT22;31504;51.716;9.184;2023-04-06T02:36:48;19.60;36.00
45803;DHT22;31504;51.716;9.184;2023-04-06T02:39:48;19.60;35.90
45803;DHT22;31504;51.716;9.184;2023-04-06T02:42:49;19.60;35.90
45803;DHT22;31504;51.716;9.184;2023-04-06T02:45:49;19.60;35.80
45803;DHT22;31504;51.716;9.184;2023-04-06T02:48:50;19.60;35.80
45803;DHT22;31504;51.716;9.184;2023-04-06T02:51:50;19.60;35.80
45803;DHT22;31504;51.716;9.184;2023-04-06T02:54:51;19.60;35.70
45803;DHT22;31504;51.716;9.184;2023-04-06T02:57:51;19.60;35.70
45803;DHT22;31504;51.716;9.184;2023-04-06T03:00:51;19.60;35.70
45803;DHT22;31504;51.716;9.184;2023-04-06T03:03:52;19.60;35.60
45803;DHT22;31504;51.716;9.184;2023-04-06T03:06:53;19.60;35.50
45803;DHT22;31504;51.716;9.184;2023-04-06T03:09:54;19.60;35.60
45803;DHT22;31504;51.716;9.184;2023-04-06T03:12:54;19.60;35.60
45803;DHT22;31504;51.716;9.184;2023-04-06T03:15:55;19.60;35.90
45803;DHT22;31504;51.716;9.184;2023-04-06T03:18:55;19.60;35.80
45803;DHT22;31504;51.716;9.184;2023-04-06T03:21:56;19.60;35.80
45803;DHT22;31504;51.716;9.184;2023-04-06T03:24:56;19.60;35.80
45803;DHT22;31504;51.716;9.184;2023-04-06T03:27:57;19.60;35.90
45803;DHT22;31504;51.716;9.184;2023-04-06T03:30:57;19.60;35.90
45803;DHT22;31504;51.716;9.184;2023-04-06T03:33:58;19.60;36.00
45803;DHT22;31504;51.716;9.184;2023-04-06T03:36:59;19.60;35.90
45803;DHT22;31504;51.716;9.184;2023-04-06T03:40:00;19.60;36.00
45803;DHT22;31504;51.716;9.184;2023-04-06T03:43:01;19.60;36.00
45803;DHT22;31504;51.716;9.184;2023-04-06T03:46:01;19.60;35.90
45803;DHT22;31504;51.716;9.184;2023-04-06T03:49:02;19.60;35.80
45803;DHT22;31504;51.716;9.184;2023-04-06T03:52:02;19.50;35.90
45803;DHT22;31504;51.716;9.184;2023-04-06T03:55:03;19.50;35.80
45803;DHT22;31504;51.716;9.184;2023-04-06T03:58:03;19.60;35.90
45803;DHT22;31504;51.716;9.184;2023-04-06T04:01:04;19.60;36.00
45803;DHT22;31504;51.716;9.184;2023-04-06T04:04:04;19.60;35.90
45803;DHT22;31504;51.716;9.184;2023-04-06T04:07:05;19.60;35.90
45803;DHT22;31504;51.716;9.184;2023-04-06T04:10:05;19.50;35.90
45803;DHT22;31504;51.716;9.184;2023-04-06T04:13:06;19.50;36.00
45803;DHT22;31504;51.716;9.184;2023-04-06T04:16:06;19.50;36.00
45803;DHT22;31504;51.716;9.184;2023-04-06T04:19:07;19.50;35.90
45803;DHT22;31504;51.716;9.184;2023-04-06T04:22:07;19.50;36.00
45803;DHT22;31504;51.716;9.184;2023-04-06T04:25:08;19.50;36.00
45803;DHT22;31504;51.716;9.184;2023-04-06T04:28:09;19.50;36.00
45803;DHT22;31504;51.716;9.184;2023-04-06T04:31:09;19.50;35.90
45803;DHT22;31504;51.716;9.184;2023-04-06T04:34:10;19.50;36.00
45803;DHT22;31504;51.716;9.184;2023-04-06T04:37:10;19.50;35.90
45803;DHT22;31504;51.716;9.184;2023-04-06T04:40:11;19.50;35.80
45803;DHT22;31504;51.716;9.184;2023-04-06T04:43:12;19.50;35.90
45803;DHT22;31504;51.716;9.184;2023-04-06T04:46:12;19.50;35.90
45803;DHT22;31504;51.716;9.184;2023-04-06T04:49:12;19.50;36.00
45803;DHT22;31504;51.716;9.184;2023-04-06T04:52:13;19.50;35.90
45803;DHT22;31504;51.716;9.184;2023-04-06T04:55:13;19.50;35.90
45803;DHT22;31504;51.716;9.184;2023-04-06T04:58:14;19.50;35.90
45803;DHT22;31504;51.716;9.184;2023-04-06T05:01:16;19.50;35.90
45803;DHT22;31504;51.716;9.184;2023-04-06T05:04:17;19.50;35.90
45803;DHT22;31504;51.716;9.184;2023-04-06T05:07:17;19.50;35.90
45803;DHT22;31504;51.716;9.184;2023-04-06T05:10:18;19.50;35.90
45803;DHT22;31504;51.716;9.184;2023-04-06T05:13:19;19.50;36.00
45803;DHT22;31504;51.716;9.184;2023-04-06T05:16:20;19.50;35.90
45803;DHT22;31504;51.716;9.184;2023-04-06T05:19:20;19.50;35.80
45803;DHT22;31504;51.716;9.184;2023-04-06T05:22:21;19.50;35.80
45803;DHT22;31504;51.716;9.184;2023-04-06T05:25:21;19.50;35.90
45803;DHT22;31504;51.716;9.184;2023-04-06T05:28:22;19.40;35.90
45803;DHT22;31504;51.716;9.184;2023-04-06T05:31:22;19.50;35.90
45803;DHT22;31504;51.716;9.184;2023-04-06T05:34:23;19.50;35.90
45803;DHT22;31504;51.716;9.184;2023-04-06T05:37:23;19.50;35.80
45803;DHT22;31504;51.716;9.184;2023-04-06T05:40:24;19.50;35.90
45803;DHT22;31504;51.716;9.184;2023-04-06T05:43:24;19.50;35.90
45803;DHT22;31504;51.716;9.184;2023-04-06T05:46:25;19.50;35.70
45803;DHT22;31504;51.716;9.184;2023-04-06T05:49:25;19.40;35.90
45803;DHT22;31504;51.716;9.184;2023-04-06T05:52:26;19.40;35.80
45803;DHT22;31504;51.716;9.184;2023-04-06T05:55:26;19.40;35.80
45803;DHT22;31504;51.716;9.184;2023-04-06T05:58:28;19.40;35.80
45803;DHT22;31504;51.716;9.184;2023-04-06T06:01:28;19.50;35.80
45803;DHT22;31504;51.716;9.184;2023-04-06T06:04:30;19.40;35.80
45803;DHT22;31504;51.716;9.184;2023-04-06T06:07:30;19.40;35.90
45803;DHT22;31504;51.716;9.184;2023-04-06T06:10:31;19.40;35.80
45803;DHT22;31504;51.716;9.184;2023-04-06T06:13:31;19.50;35.80
45803;DHT22;31504;51.716;9.184;2023-04-06T06:16:32;19.50;35.80
45803;DHT22;31504;51.716;9.184;2023-04-06T06:19:32;19.50;35.80
45803;DHT22;31504;51.716;9.184;2023-04-06T06:22:33;19.50;35.80
45803;DHT22;31504;51.716;9.184;2023-04-06T06:25:33;19.50;35.80
45803;DHT22;31504;51.716;9.184;2023-04-06T06:28:34;19.50;35.80
45803;DHT22;31504;51.716;9.184;2023-04-06T06:31:34;19.40;35.80
45803;DHT22;31504;51.716;9.184;2023-04-06T06:34:35;19.50;35.80
45803;DHT22;31504;51.716;9.184;2023-04-06T06:37:36;19.50;35.80
45803;DHT22;31504;51.716;9.184;2023-04-06T06:40:36;19.50;35.90
45803;DHT22;31504;51.716;9.184;2023-04-06T06:43:37;19.50;35.70
45803;DHT22;31504;51.716;9.184;2023-04-06T06:46:37;19.50;35.80
45803;DHT22;31504;51.716;9.184;2023-04-06T06:49:38;19.50;36.00
45803;DHT22;31504;51.716;9.184;2023-04-06T06:52:38;19.50;36.00
45803;DHT22;31504;51.716;9.184;2023-04-06T06:55:39;19.50;36.00
45803;DHT22;31504;51.716;9.184;2023-04-06T06:58:40;19.50;35.90
45803;DHT22;31504;51.716;9.184;2023-04-06T07:01:41;19.50;35.90
45803;DHT22;31504;51.716;9.184;2023-04-06T07:04:41;19.50;36.00
45803;DHT22;31504;51.716;9.184;2023-04-06T07:07:41;19.50;35.90
45803;DHT22;31504;51.716;9.184;2023-04-06T07:10:42;19.50;35.90
45803;DHT22;31504;51.716;9.184;2023-04-06T07:13:42;19.50;35.90
45803;DHT22;31504;51.716;9.184;2023-04-06T07:16:43;19.50;36.00
45803;DHT22;31504;51.716;9.184;2023-04-06T07:19:45;19.50;36.00
45803;DHT22;31504;51.716;9.184;2023-04-06T07:22:45;19.50;35.90
45803;DHT22;31504;51.716;9.184;2023-04-06T07:25:46;19.50;35.90
45803;DHT22;31504;51.716;9.184;2023-04-06T07:28:46;19.50;36.60
45803;DHT22;31504;51.716;9.184;2023-04-06T07:31:47;19.50;36.00
45803;DHT22;31504;51.716;9.184;2023-04-06T07:34:49;19.50;35.90
45803;DHT22;31504;51.716;9.184;2023-04-06T07:37:49;19.60;36.00
45803;DHT22;31504;51.716;9.184;2023-04-06T07:40:50;19.60;35.70
45803;DHT22;31504;51.716;9.184;2023-04-06T07:43:50;19.60;36.00
45803;DHT22;31504;51.716;9.184;2023-04-06T07:46:51;19.60;36.00
45803;DHT22;31504;51.716;9.184;2023-04-06T07:49:51;19.60;36.00
45803;DHT22;31504;51.716;9.184;2023-04-06T07:52:52;19.50;36.00
45803;DHT22;31504;51.716;9.184;2023-04-06T07:55:53;19.50;36.00
45803;DHT22;31504;51.716;9.184;2023-04-06T07:58:53;19.60;36.00
45803;DHT22;31504;51.716;9.184;2023-04-06T08:01:56;19.60;35.90
45803;DHT22;31504;51.716;9.184;2023-04-06T08:04:57;19.60;35.80
45803;DHT22;31504;51.716;9.184;2023-04-06T08:07:57;19.60;36.10
45803;DHT22;31504;51.716;9.184;2023-04-06T08:10:58;19.60;36.00
45803;DHT22;31504;51.716;9.184;2023-04-06T08:13:58;19.60;36.00
45803;DHT22;31504;51.716;9.184;2023-04-06T08:16:59;19.60;36.00
45803;DHT22;31504;51.716;9.184;2023-04-06T08:19:59;19.60;36.00
45803;DHT22;31504;51.716;9.184;2023-04-06T08:23:00;19.60;36.00
45803;DHT22;31504;51.716;9.184;2023-04-06T08:26:01;19.60;36.00
45803;DHT22;31504;51.716;9.184;2023-04-06T08:29:01;19.60;36.00
45803;DHT22;31504;51.716;9.184;2023-04-06T08:32:04;19.60;35.90
45803;DHT22;31504;51.716;9.184;2023-04-06T08:35:05;19.60;35.90
45803;DHT22;31504;51.716;9.184;2023-04-06T08:38:05;19.60;36.00
45803;DHT22;31504;51.716;9.184;2023-04-06T08:41:07;19.60;36.00
45803;DHT22;31504;51.716;9.184;2023-04-06T08:44:07;19.60;36.00
45803;DHT22;31504;51.716;9.184;2023-04-06T08:47:08;19.60;36.00
45803;DHT22;31504;51.716;9.184;2023-04-06T08:50:09;19.60;35.90
45803;DHT22;31504;51.716;9.184;2023-04-06T08:53:11;19.60;36.00
45803;DHT22;31504;51.716;9.184;2023-04-06T08:56:12;19.60;36.10
45803;DHT22;31504;51.716;9.184;2023-04-06T08:59:13;19.60;36.20
45803;DHT22;31504;51.716;9.184;2023-04-06T09:02:15;19.60;36.10
45803;DHT22;31504;51.716;9.184;2023-04-06T09:05:17;19.60;36.10
45803;DHT22;31504;51.716;9.184;2023-04-06T09:08:18;19.60;36.10
45803;DHT22;31504;51.716;9.184;2023-04-06T09:11:18;19.60;36.90
45803;DHT22;31504;51.716;9.184;2023-04-06T09:14:40;19.60;36.60
45803;DHT22;31504;51.716;9.184;2023-04-06T09:17:40;19.60;36.70
45803;DHT22;31504;51.716;9.184;2023-04-06T09:20:43;19.60;36.70
45803;DHT22;31504;51.716;9.184;2023-04-06T09:23:44;19.70;36.70
45803;DHT22;31504;51.716;9.184;2023-04-06T09:26:45;19.70;36.60
45803;DHT22;31504;51.716;9.184;2023-04-06T09:29:47;19.70;36.70
45803;DHT22;31504;51.716;9.184;2023-04-06T09:32:54;19.70;36.80
45803;DHT22;31504;51.716;9.184;2023-04-06T09:35:56;19.70;36.70
45803;DHT22;31504;51.716;9.184;2023-04-06T09:38:58;19.70;36.80
45803;DHT22;31504;51.716;9.184;2023-04-06T09:41:59;19.70;36.80
45803;DHT22;31504;51.716;9.184;2023-04-06T09:45:01;19.70;36.80
45803;DHT22;31504;51.716;9.184;2023-04-06T09:48:02;19.70;36.80
45803;DHT22;31504;51.716;9.184;2023-04-06T09:51:03;19.70;36.80
45803;DHT22;31504;51.716;9.184;2023-04-06T09:54:05;19.70;36.80
45803;DHT22;31504;51.716;9.184;2023-04-06T09:57:21;19.70;36.80
45803;DHT22;31504;51.716;9.184;2023-04-06T10:00:24;19.70;36.80
45803;DHT22;31504;51.716;9.184;2023-04-06T10:03:32;19.70;36.80
45803;DHT22;31504;51.716;9.184;2023-04-06T10:06:37;19.70;36.80
45803;DHT22;31504;51.716;9.184;2023-04-06T10:09:38;19.70;37.00
45803;DHT22;31504;51.716;9.184;2023-04-06T10:12:39;19.70;37.00
45803;DHT22;31504;51.716;9.184;2023-04-06T10:15:40;19.70;37.00
45803;DHT22;31504;51.716;9.184;2023-04-06T10:18:44;19.70;36.90
45803;DHT22;31504;51.716;9.184;2023-04-06T10:21:47;19.70;36.90
45803;DHT22;31504;51.716;9.184;2023-04-06T10:24:50;19.70;37.00
45803;DHT22;31504;51.716;9.184;2023-04-06T10:27:58;19.70;36.90
45803;DHT22;31504;51.716;9.184;2023-04-06T10:31:00;19.70;37.00
45803;DHT22;31504;51.716;9.184;2023-04-06T10:34:01;19.70;36.90
45803;DHT22;31504;51.716;9.184;2023-04-06T10:37:14;19.70;36.90
45803;DHT22;31504;51.716;9.184;2023-04-06T10:40:22;19.70;36.90
45803;DHT22;31504;51.716;9.184;2023-04-06T10:43:23;19.70;36.90
45803;DHT22;31504;51.716;9.184;2023-04-06T10:46:30;19.80;36.90
45803;DHT22;31504;51.716;9.184;2023-04-06T10:49:30;19.70;36.90
45803;DHT22;31504;51.716;9.184;2023-04-06T10:52:31;19.70;36.90
45803;DHT22;31504;51.716;9.184;2023-04-06T10:55:31;19.80;36.90
45803;DHT22;31504;51.716;9.184;2023-04-06T10:58:32;19.70;36.70
45803;DHT22;31504;51.716;9.184;2023-04-06T11:01:32;19.80;36.90
45803;DHT22;31504;51.716;9.184;2023-04-06T11:04:33;19.80;36.90
45803;DHT22;31504;51.716;9.184;2023-04-06T11:07:33;19.80;36.90
45803;DHT22;31504;51.716;9.184;2023-04-06T11:10:34;19.80;36.90
45803;DHT22;31504;51.716;9.184;2023-04-06T11:13:38;19.80;36.90
45803;DHT22;31504;51.716;9.184;2023-04-06T11:16:38;19.80;36.80
45803;DHT22;31504;51.716;9.184;2023-04-06T11:19:39;19.80;36.80
45803;DHT22;31504;51.716;9.184;2023-04-06T11:22:49;19.80;36.50
45803;DHT22;31504;51.716;9.184;2023-04-06T11:25:50;19.80;36.60
45803;DHT22;31504;51.716;9.184;2023-04-06T11:28:51;19.80;36.50
45803;DHT22;31504;51.716;9.184;2023-04-06T11:31:52;19.80;36.60
45803;DHT22;31504;51.716;9.184;2023-04-06T11:34:53;19.80;36.50
45803;DHT22;31504;51.716;9.184;2023-04-06T11:37:54;19.80;36.40
45803;DHT22;31504;51.716;9.184;2023-04-06T11:40:54;19.80;36.30
45803;DHT22;31504;51.716;9.184;2023-04-06T11:43:55;19.90;36.20
45803;DHT22;31504;51.716;9.184;2023-04-06T11:46:56;19.90;36.20
45803;DHT22;31504;51.716;9.184;2023-04-06T11:50:05;19.90;36.30
45803;DHT22;31504;51.716;9.184;2023-04-06T11:53:06;19.90;36.40
45803;DHT22;31504;51.716;9.184;2023-04-06T11:56:06;19.90;36.40
45803;DHT22;31504;51.716;9.184;2023-04-06T11:59:07;19.90;36.40
45803;DHT22;31504;51.716;9.184;2023-04-06T12:02:07;19.90;36.40
45803;DHT22;31504;51.716;9.184;2023-04-06T12:05:08;19.90;36.40
45803;DHT22;31504;51.716;9.184;2023-04-06T12:08:08;20.00;36.30
45803;DHT22;31504;51.716;9.184;2023-04-06T12:11:09;19.90;36.10
45803;DHT22;31504;51.716;9.184;2023-04-06T12:14:10;19.80;35.90
45803;DHT22;31504;51.716;9.184;2023-04-06T12:17:10;19.70;35.00
45803;DHT22;31504;51.716;9.184;2023-04-06T12:20:11;19.60;34.30
45803;DHT22;31504;51.716;9.184;2023-04-06T12:23:11;19.60;33.90
45803;DHT22;31504;51.716;9.184;2023-04-06T12:26:12;19.60;33.50
45803;DHT22;31504;51.716;9.184;2023-04-06T12:29:12;19.60;33.60
45803;DHT22;31504;51.716;9.184;2023-04-06T12:32:13;19.50;33.10
45803;DHT22;31504;51.716;9.184;2023-04-06T12:35:14;19.50;32.70
45803;DHT22;31504;51.716;9.184;2023-04-06T12:38:15;19.50;32.40
45803;DHT22;31504;51.716;9.184;2023-04-06T12:41:19;19.50;32.80
45803;DHT22;31504;51.716;9.184;2023-04-06T12:44:20;19.60;32.70
45803;DHT22;31504;51.716;9.184;2023-04-06T12:47:20;19.60;32.80
45803;DHT22;31504;51.716;9.184;2023-04-06T12:50:22;19.70;33.10
45803;DHT22;31504;51.716;9.184;2023-04-06T12:53:23;19.80;33.30
45803;DHT22;31504;51.716;9.184;2023-04-06T12:56:24;19.80;33.60
45803;DHT22;31504;51.716;9.184;2023-04-06T12:59:25;19.90;34.00
45803;DHT22;31504;51.716;9.184;2023-04-06T13:02:25;19.90;34.30
45803;DHT22;31504;51.716;9.184;2023-04-06T13:05:26;19.90;34.80
45803;DHT22;31504;51.716;9.184;2023-04-06T13:08:26;19.90;34.90
45803;DHT22;31504;51.716;9.184;2023-04-06T13:11:27;20.00;35.10
45803;DHT22;31504;51.716;9.184;2023-04-06T13:14:28;20.00;35.20
45803;DHT22;31504;51.716;9.184;2023-04-06T13:17:29;20.00;35.20
45803;DHT22;31504;51.716;9.184;2023-04-06T13:20:29;20.00;35.30
45803;DHT22;31504;51.716;9.184;2023-04-06T13:23:30;20.00;35.40
45803;DHT22;31504;51.716;9.184;2023-04-06T13:26:30;20.00;35.50
45803;DHT22;31504;51.716;9.184;2023-04-06T13:29:31;20.00;35.50
45803;DHT22;31504;51.716;9.184;2023-04-06T13:32:32;19.90;35.60
45803;DHT22;31504;51.716;9.184;2023-04-06T13:35:32;19.90;35.60
45803;DHT22;31504;51.716;9.184;2023-04-06T13:38:33;20.00;35.70
45803;DHT22;31504;51.716;9.184;2023-04-06T13:41:33;20.00;35.80
45803;DHT22;31504;51.716;9.184;2023-04-06T13:44:34;20.00;35.90
45803;DHT22;31504;51.716;9.184;2023-04-06T13:47:34;20.00;36.10
45803;DHT22;31504;51.716;9.184;2023-04-06T13:50:35;19.90;36.00
45803;DHT22;31504;51.716;9.184;2023-04-06T13:53:35;20.00;36.10
45803;DHT22;31504;51.716;9.184;2023-04-06T13:56:36;20.00;36.10
45803;DHT22;31504;51.716;9.184;2023-04-06T13:59:36;20.00;35.90
45803;DHT22;31504;51.716;9.184;2023-04-06T14:02:37;19.90;36.00
45803;DHT22;31504;51.716;9.184;2023-04-06T14:05:37;20.00;36.10
45803;DHT22;31504;51.716;9.184;2023-04-06T14:08:38;20.00;36.00
45803;DHT22;31504;51.716;9.184;2023-04-06T14:11:38;20.00;36.10
45803;DHT22;31504;51.716;9.184;2023-04-06T14:14:39;20.00;36.90
45803;DHT22;31504;51.716;9.184;2023-04-06T14:17:39;20.00;36.40
45803;DHT22;31504;51.716;9.184;2023-04-06T14:20:40;20.00;36.60
45803;DHT22;31504;51.716;9.184;2023-04-06T14:23:43;19.90;36.60
45803;DHT22;31504;51.716;9.184;2023-04-06T14:26:44;19.90;36.60
45803;DHT22;31504;51.716;9.184;2023-04-06T14:29:44;19.90;36.70
45803;DHT22;31504;51.716;9.184;2023-04-06T14:32:45;20.00;36.80
45803;DHT22;31504;51.716;9.184;2023-04-06T14:35:45;20.00;36.80
45803;DHT22;31504;51.716;9.184;2023-04-06T14:38:45;20.00;36.60
45803;DHT22;31504;51.716;9.184;2023-04-06T14:41:49;20.00;36.70
45803;DHT22;31504;51.716;9.184;2023-04-06T14:44:49;19.90;36.80
45803;DHT22;31504;51.716;9.184;2023-04-06T14:47:50;20.00;37.00
45803;DHT22;31504;51.716;9.184;2023-04-06T14:50:54;20.00;37.10
45803;DHT22;31504;51.716;9.184;2023-04-06T14:53:56;20.00;37.10
45803;DHT22;31504;51.716;9.184;2023-04-06T14:56:56;20.00;37.20
45803;DHT22;31504;51.716;9.184;2023-04-06T14:59:57;20.00;37.30
45803;DHT22;31504;51.716;9.184;2023-04-06T15:02:57;20.00;37.30
45803;DHT22;31504;51.716;9.184;2023-04-06T15:05:58;20.00;37.30
45803;DHT22;31504;51.716;9.184;2023-04-06T15:08:58;20.00;37.30
45803;DHT22;31504;51.716;9.184;2023-04-06T15:11:59;20.00;37.40
45803;DHT22;31504;51.716;9.184;2023-04-06T15:15:00;20.00;37.50
45803;DHT22;31504;51.716;9.184;2023-04-06T15:18:01;20.00;37.60
45803;DHT22;31504;51.716;9.184;2023-04-06T15:21:02;20.00;37.60
45803;DHT22;31504;51.716;9.184;2023-04-06T15:24:03;20.00;37.70
45803;DHT22;31504;51.716;9.184;2023-04-06T15:27:06;20.00;37.60
45803;DHT22;31504;51.716;9.184;2023-04-06T15:30:07;20.00;37.80
45803;DHT22;31504;51.716;9.184;2023-04-06T15:33:07;20.00;37.80
45803;DHT22;31504;51.716;9.184;2023-04-06T15:36:16;20.00;37.90
45803;DHT22;31504;51.716;9.184;2023-04-06T15:39:21;20.00;38.00
45803;DHT22;31504;51.716;9.184;2023-04-06T15:42:22;20.00;38.20
45803;DHT22;31504;51.716;9.184;2023-04-06T15:45:22;20.10;38.20
45803;DHT22;31504;51.716;9.184;2023-04-06T15:48:23;20.10;38.20
45803;DHT22;31504;51.716;9.184;2023-04-06T15:51:24;20.10;38.30
45803;DHT22;31504;51.716;9.184;2023-04-06T15:54:25;20.00;38.30
45803;DHT22;31504;51.716;9.184;2023-04-06T15:57:25;20.10;38.50
45803;DHT22;31504;51.716;9.184;2023-04-06T16:00:26;20.00;38.50
45803;DHT22;31504;51.716;9.184;2023-04-06T16:03:28;20.00;38.60
45803;DHT22;31504;51.716;9.184;2023-04-06T16:06:28;20.10;38.80
45803;DHT22;31504;51.716;9.184;2023-04-06T16:09:29;20.00;38.80
45803;DHT22;31504;51.716;9.184;2023-04-06T16:12:29;20.10;38.90
45803;DHT22;31504;51.716;9.184;2023-04-06T16:15:32;20.10;39.00
45803;DHT22;31504;51.716;9.184;2023-04-06T16:18:32;20.10;39.20
45803;DHT22;31504;51.716;9.184;2023-04-06T16:21:33;20.10;39.20
45803;DHT22;31504;51.716;9.184;2023-04-06T16:24:33;20.10;39.30
45803;DHT22;31504;51.716;9.184;2023-04-06T16:27:34;20.10;39.50
45803;DHT22;31504;51.716;9.184;2023-04-06T16:30:38;20.10;39.60
45803;DHT22;31504;51.716;9.184;2023-04-06T16:33:38;20.10;39.60
45803;DHT22;31504;51.716;9.184;2023-04-06T16:36:39;20.10;39.70
45803;DHT22;31504;51.716;9.184;2023-04-06T16:39:42;20.10;39.70
45803;DHT22;31504;51.716;9.184;2023-04-06T16:42:43;20.10;39.80
45803;DHT22;31504;51.716;9.184;2023-04-06T16:45:48;20.10;39.90
45803;DHT22;31504;51.716;9.184;2023-04-06T16:48:48;20.10;40.00
45803;DHT22;31504;51.716;9.184;2023-04-06T16:51:49;20.20;40.00
45803;DHT22;31504;51.716;9.184;2023-04-06T16:54:51;20.20;40.70
45803;DHT22;31504;51.716;9.184;2023-04-06T16:57:53;20.20;40.10
45803;DHT22;31504;51.716;9.184;2023-04-06T17:00:54;20.20;40.10
45803;DHT22;31504;51.716;9.184;2023-04-06T17:03:55;20.10;40.20
45803;DHT22;31504;51.716;9.184;2023-04-06T17:06:55;20.20;40.30
45803;DHT22;31504;51.716;9.184;2023-04-06T17:10:00;20.20;40.30
45803;DHT22;31504;51.716;9.184;2023-04-06T17:13:01;20.20;40.30
45803;DHT22;31504;51.716;9.184;2023-04-06T17:16:01;20.20;40.30
45803;DHT22;31504;51.716;9.184;2023-04-06T17:19:02;20.20;40.30
45803;DHT22;31504;51.716;9.184;2023-04-06T17:22:03;20.20;40.40
45803;DHT22;31504;51.716;9.184;2023-04-06T17:25:03;20.20;40.50
45803;DHT22;31504;51.716;9.184;2023-04-06T17:28:06;20.20;40.50
45803;DHT22;31504;51.716;9.184;2023-04-06T17:31:07;20.20;40.40
45803;DHT22;31504;51.716;9.184;2023-04-06T17:34:09;20.20;40.70
45803;DHT22;31504;51.716;9.184;2023-04-06T17:37:10;20.20;40.60
45803;DHT22;31504;51.716;9.184;2023-04-06T17:40:11;20.20;40.60
45803;DHT22;31504;51.716;9.184;2023-04-06T17:43:11;20.20;40.70
45803;DHT22;31504;51.716;9.184;2023-04-06T17:46:12;20.20;40.60
45803;DHT22;31504;51.716;9.184;2023-04-06T17:49:13;20.20;40.70
45803;DHT22;31504;51.716;9.184;2023-04-06T17:52:14;20.10;40.80
45803;DHT22;31504;51.716;9.184;2023-04-06T17:55:14;20.20;40.80
45803;DHT22;31504;51.716;9.184;2023-04-06T17:58:15;20.20;40.80
45803;DHT22;31504;51.716;9.184;2023-04-06T18:01:16;20.20;40.80
45803;DHT22;31504;51.716;9.184;2023-04-06T18:04:18;20.20;40.70
45803;DHT22;31504;51.716;9.184;2023-04-06T18:07:18;20.20;40.70
45803;DHT22;31504;51.716;9.184;2023-04-06T18:10:19;20.20;40.60
45803;DHT22;31504;51.716;9.184;2023-04-06T18:13:20;20.20;40.70
45803;DHT22;31504;51.716;9.184;2023-04-06T18:16:21;20.10;40.70
45803;DHT22;31504;51.716;9.184;2023-04-06T18:19:22;20.20;40.90
45803;DHT22;31504;51.716;9.184;2023-04-06T18:22:22;20.20;40.90
45803;DHT22;31504;51.716;9.184;2023-04-06T18:25:23;20.20;41.10
45803;DHT22;31504;51.716;9.184;2023-04-06T18:28:24;20.20;41.00
45803;DHT22;31504;51.716;9.184;2023-04-06T18:31:25;20.20;41.10
45803;DHT22;31504;51.716;9.184;2023-04-06T18:34:25;20.20;41.10
45803;DHT22;31504;51.716;9.184;2023-04-06T18:37:25;20.20;41.10
45803;DHT22;31504;51.716;9.184;2023-04-06T18:40:32;20.20;41.10
45803;DHT22;31504;51.716;9.184;2023-04-06T18:43:33;20.20;41.00
45803;DHT22;31504;51.716;9.184;2023-04-06T18:46:34;20.20;41.00
45803;DHT22;31504;51.716;9.184;2023-04-06T18:49:38;20.20;41.00
45803;DHT22;31504;51.716;9.184;2023-04-06T18:52:43;20.20;41.00
45803;DHT22;31504;51.716;9.184;2023-04-06T18:55:43;20.20;41.10
45803;DHT22;31504;51.716;9.184;2023-04-06T18:58:44;20.20;41.30
45803;DHT22;31504;51.716;9.184;2023-04-06T19:01:45;20.20;41.40